Time;durP1;ratioP1;P1;durP2;ratioP2;P2;SDS_P1;SDS_P2;PMS_P1;PMS_P2;Temp;Humidity;BMP_temperature;BMP_pressure;BME280_temperature;BME280_humidity;BME280_pressure;Samples;Min_cycle;Max_cycle;Signal;HPM_P1;HPM_P2
2022/09/18 00:00:53;;;;;;;11.13;4.07;;;14.40;99.90;;;;;;5037808;28;20053;-68
2022/09/18 00:03:18;;;;;;;8.82;4.20;;;14.40;99.90;;;;;;5049208;28;20068;-68
2022/09/18 00:05:44;;;;;;;7.43;4.22;;;14.30;99.90;;;;;;5053549;28;20033;-68
2022/09/18 00:08:10;;;;;;;7.97;4.30;;;14.40;99.90;;;;;;5040585;28;20033;-68
2022/09/18 00:10:45;;;;;;;11.05;5.28;;;14.30;99.90;;;;;;5036481;28;20400;-67
2022/09/18 00:13:12;;;;;;;12.52;6.10;;;14.30;99.90;;;;;;5030627;28;20152;-67
2022/09/18 00:15:37;;;;;;;13.80;6.40;;;14.30;99.90;;;;;;5035274;28;20069;-67
2022/09/18 00:18:04;;;;;;;11.80;6.38;;;14.30;99.90;;;;;;5034445;28;20504;-66
2022/09/18 00:20:33;;;;;;;14.82;6.78;;;14.30;99.90;;;;;;5035524;28;20021;-67
2022/09/18 00:22:59;;;;;;;12.05;6.88;;;14.30;99.90;;;;;;5034923;28;20029;-67
2022/09/18 00:25:24;;;;;;;10.48;6.00;;;14.20;99.90;;;;;;5033462;28;20028;-67
2022/09/18 00:27:50;;;;;;;11.00;5.95;;;14.30;99.90;;;;;;5034036;28;20065;-67
2022/09/18 00:30:16;;;;;;;13.95;6.47;;;14.20;99.90;;;;;;5035163;28;20022;-66
2022/09/18 00:32:42;;;;;;;13.27;6.07;;;14.20;99.90;;;;;;5050153;28;20575;-66
2022/09/18 00:35:07;;;;;;;11.40;6.00;;;14.20;99.90;;;;;;5038397;28;20048;-66
2022/09/18 00:37:34;;;;;;;12.02;5.75;;;14.20;99.90;;;;;;5044928;28;20041;-67
2022/09/18 00:40:01;;;;;;;14.27;4.97;;;14.20;99.90;;;;;;5031323;28;20041;-66
2022/09/18 00:42:26;;;;;;;9.30;4.35;;;14.20;99.90;;;;;;5033581;28;20485;-66
2022/09/18 00:44:52;;;;;;;10.52;4.47;;;14.20;99.90;;;;;;5033913;28;20033;-67
2022/09/18 00:47:53;;;;;;;9.48;4.40;;;14.20;99.90;;;;;;5033910;28;20060;-67
2022/09/18 00:50:22;;;;;;;6.38;3.63;;;14.20;99.90;;;;;;4979335;28;20030;-67
2022/09/18 00:52:53;;;;;;;4.88;2.78;;;14.20;99.90;;;;;;5023370;28;20479;-67
2022/09/18 00:55:25;;;;;;;6.55;3.10;;;14.30;99.90;;;;;;5030946;28;20021;-67
2022/09/18 00:57:54;;;;;;;7.47;3.10;;;14.30;99.90;;;;;;5033820;28;20025;-67
2022/09/18 01:00:21;;;;;;;8.95;2.75;;;14.30;99.90;;;;;;5030335;28;20447;-67
2022/09/18 01:02:47;;;;;;;3.33;1.95;;;14.30;99.90;;;;;;5033620;28;20057;-67
2022/09/18 01:05:21;;;;;;;6.65;2.65;;;14.30;99.90;;;;;;5033542;28;20462;-67
2022/09/18 01:08:14;;;;;;;7.05;2.83;;;14.30;99.90;;;;;;5032954;28;20037;-67
2022/09/18 01:10:49;;;;;;;6.38;2.75;;;14.40;99.90;;;;;;5031270;28;20017;-66
2022/09/18 01:13:43;;;;;;;11.18;3.15;;;14.40;99.90;;;;;;5031922;28;20057;-67
2022/09/18 01:16:24;;;;;;;7.65;3.00;;;14.30;99.90;;;;;;5030444;28;20060;-67
2022/09/18 01:19:24;;;;;;;5.05;2.60;;;14.30;99.90;;;;;;5032538;28;20037;-67
2022/09/18 01:22:21;;;;;;;6.93;2.95;;;14.40;99.90;;;;;;5032401;28;20512;-66
2022/09/18 01:25:14;;;;;;;6.55;2.28;;;14.30;99.90;;;;;;5029472;28;20038;-67
2022/09/18 01:27:40;;;;;;;;;;;14.30;99.90;;;;;;5031389;28;20025;-67
2022/09/18 01:30:07;;;;;;;4.88;2.60;;;14.40;99.90;;;;;;5032634;28;20369;-67
2022/09/18 01:32:42;;;;;;;4.30;2.15;;;14.40;99.90;;;;;;5033299;28;20469;-67
2022/09/18 01:35:14;;;;;;;3.67;2.22;;;14.40;99.90;;;;;;5032536;28;20024;-66
2022/09/18 01:37:51;;;;;;;6.75;2.88;;;14.40;99.90;;;;;;5030434;28;20025;-66
2022/09/18 01:40:23;;;;;;;6.75;2.85;;;14.40;99.90;;;;;;5029334;28;20449;-66
2022/09/18 01:42:53;;;;;;;8.55;3.30;;;14.50;99.90;;;;;;5032170;28;20037;-66
2022/09/18 01:45:25;;;;;;;8.13;4.47;;;14.50;99.90;;;;;;5030216;28;20029;-66
2022/09/18 01:47:56;;;;;;;12.00;5.80;;;14.40;99.90;;;;;;5033157;28;20032;-67
2022/09/18 01:50:25;;;;;;;11.52;5.78;;;14.50;99.90;;;;;;5030153;28;20025;-67
2022/09/18 01:53:16;;;;;;;11.30;5.25;;;14.40;99.90;;;;;;5030011;28;20033;-67
2022/09/18 01:55:47;;;;;;;8.95;5.68;;;14.40;99.90;;;;;;5031675;28;20033;-67
2022/09/18 01:58:19;;;;;;;8.77;5.43;;;14.50;99.90;;;;;;5032068;28;20018;-67
2022/09/18 02:00:53;;;;;;;7.18;5.07;;;14.40;99.90;;;;;;5031984;28;20033;-67
2022/09/18 02:03:24;;;;;;;9.82;4.90;;;14.40;99.90;;;;;;5029963;28;20017;-67
2022/09/18 02:06:16;;;;;;;11.87;5.00;;;14.40;99.90;;;;;;5031966;28;20037;-68
2022/09/18 02:08:52;;;;;;;10.50;4.18;;;14.40;99.90;;;;;;5030767;28;20477;-67
2022/09/18 02:11:19;;;;;;;8.30;3.85;;;14.40;99.90;;;;;;5028769;28;20025;-67
2022/09/18 02:13:59;;;;;;;9.75;3.25;;;14.40;99.90;;;;;;5032543;28;20438;-68
2022/09/18 02:16:33;;;;;;;6.88;2.78;;;14.40;99.90;;;;;;5030819;28;20060;-67
2022/09/18 02:19:04;;;;;;;5.47;2.40;;;14.30;99.90;;;;;;5030016;28;20100;-68
2022/09/18 02:21:31;;;;;;;5.40;2.42;;;14.30;99.90;;;;;;5030523;28;20022;-67
2022/09/18 02:24:04;;;;;;;4.85;1.85;;;14.30;99.90;;;;;;5028461;28;20052;-67
2022/09/18 02:26:32;;;;;;;8.05;2.05;;;14.30;99.90;;;;;;5029392;28;20473;-68
2022/09/18 02:28:59;;;;;;;9.45;1.98;;;14.30;99.90;;;;;;5029423;28;20426;-67
2022/09/18 02:31:25;;;;;;;6.25;1.95;;;14.20;99.90;;;;;;5031594;28;20470;-67
2022/09/18 02:33:53;;;;;;;5.18;1.73;;;14.20;99.90;;;;;;5031936;28;20032;-67
2022/09/18 02:36:28;;;;;;;4.38;1.40;;;14.20;99.90;;;;;;5029084;28;20041;-67
2022/09/18 02:39:09;;;;;;;8.05;1.90;;;14.30;99.90;;;;;;5031785;28;20386;-67
2022/09/18 02:42:02;;;;;;;9.85;1.50;;;14.20;99.90;;;;;;5031622;28;20036;-67
2022/09/18 02:44:39;;;;;;;5.90;1.13;;;14.30;99.90;;;;;;5030751;28;20059;-67
2022/09/18 02:47:29;;;;;;;9.32;1.75;;;14.30;99.90;;;;;;5030469;28;20029;-68
2022/09/18 02:50:00;;;;;;;7.28;1.35;;;14.20;99.90;;;;;;5016959;28;20474;-67
2022/09/18 02:52:32;;;;;;;6.82;1.13;;;14.20;99.90;;;;;;5031385;28;20083;-67
2022/09/18 02:55:08;;;;;;;5.07;1.20;;;14.20;99.90;;;;;;5018966;28;20481;-67
2022/09/18 02:57:39;;;;;;;5.45;1.25;;;14.20;99.90;;;;;;5031542;28;20017;-67
2022/09/18 03:00:07;;;;;;;10.90;1.50;;;14.20;99.90;;;;;;5031000;28;20414;-68
2022/09/18 03:02:33;;;;;;;10.98;1.75;;;14.20;99.90;;;;;;5032528;28;20033;-67
2022/09/18 03:04:58;;;;;;;5.78;1.25;;;14.20;99.90;;;;;;5032450;28;20017;-67
2022/09/18 03:07:24;;;;;;;4.45;1.20;;;14.10;99.90;;;;;;5031445;28;20030;-68
2022/09/18 03:09:49;;;;;;;6.90;1.23;;;14.10;99.90;;;;;;5031173;28;20040;-68
2022/09/18 03:12:15;;;;;;;4.97;1.17;;;14.10;99.90;;;;;;5031815;28;20245;-67
2022/09/18 03:14:41;;;;;;;7.72;1.58;;;14.10;99.90;;;;;;5032352;28;20037;-67
2022/09/18 03:17:08;;;;;;;10.30;1.42;;;14.00;99.90;;;;;;5032195;28;20072;-67
2022/09/18 03:19:33;;;;;;;7.22;1.33;;;14.10;99.90;;;;;;5029207;28;20437;-68
2022/09/18 03:21:59;;;;;;;10.55;1.73;;;14.10;99.90;;;;;;5031106;28;20056;-67
2022/09/18 03:24:25;;;;;;;9.45;1.40;;;14.10;99.90;;;;;;5032310;28;20053;-67
2022/09/18 03:26:51;;;;;;;4.95;1.48;;;14.10;99.90;;;;;;5035534;28;20486;-67
2022/09/18 03:29:17;;;;;;;4.53;1.42;;;14.10;99.90;;;;;;5036130;28;20105;-69
2022/09/18 03:31:43;;;;;;;6.93;1.30;;;14.20;99.90;;;;;;5034287;28;20113;-67
2022/09/18 03:34:09;;;;;;;5.70;1.38;;;14.10;99.90;;;;;;5035408;28;20465;-67
2022/09/18 03:36:34;;;;;;;8.25;1.70;;;14.20;99.90;;;;;;5036088;28;20064;-68
2022/09/18 03:39:00;;;;;;;5.72;1.73;;;14.20;99.90;;;;;;5035698;28;20022;-68
2022/09/18 03:41:26;;;;;;;7.40;2.05;;;14.30;99.90;;;;;;5035459;28;20037;-68
2022/09/18 03:43:51;;;;;;;6.75;1.45;;;14.20;99.90;;;;;;5035907;28;20029;-67
2022/09/18 03:46:23;;;;;;;7.45;1.77;;;14.20;99.90;;;;;;5032756;28;20030;-68
2022/09/18 03:48:50;;;;;;;7.63;2.00;;;14.20;99.90;;;;;;5034623;28;20060;-67
2022/09/18 03:51:17;;;;;;;8.18;1.70;;;14.30;99.90;;;;;;5018985;28;20273;-67
2022/09/18 03:53:44;;;;;;;5.57;1.67;;;14.30;99.90;;;;;;5015758;28;20108;-67
2022/09/18 03:56:10;;;;;;;7.85;1.83;;;14.30;99.90;;;;;;5028572;28;20109;-67
2022/09/18 03:58:35;;;;;;;6.43;1.67;;;14.30;99.90;;;;;;5034996;28;20113;-68
2022/09/18 04:01:01;;;;;;;9.98;1.77;;;14.30;99.90;;;;;;5035066;28;20030;-67
2022/09/18 04:03:27;;;;;;;7.45;1.95;;;14.30;99.90;;;;;;5034737;28;20022;-69
2022/09/18 04:05:52;;;;;;;8.98;1.63;;;14.30;99.90;;;;;;5031755;28;20025;-67
2022/09/18 04:08:18;;;;;;;5.90;1.95;;;14.30;99.90;;;;;;5023903;28;20083;-67
2022/09/18 04:10:46;;;;;;;9.93;1.63;;;14.30;99.90;;;;;;5035089;28;20026;-67
2022/09/18 04:13:12;;;;;;;11.10;1.70;;;14.30;99.90;;;;;;5035114;28;20541;-67
2022/09/18 04:15:37;;;;;;;8.80;2.40;;;14.30;99.90;;;;;;5035161;28;20152;-67
2022/09/18 04:18:03;;;;;;;9.20;1.92;;;14.30;99.90;;;;;;5034253;28;20044;-67
2022/09/18 04:20:30;;;;;;;5.70;1.92;;;14.30;99.90;;;;;;5035343;28;20022;-67
2022/09/18 04:22:58;;;;;;;9.13;2.30;;;14.20;99.90;;;;;;5035173;28;20029;-67
2022/09/18 04:25:24;;;;;;;7.95;2.42;;;14.20;99.90;;;;;;5035032;28;20033;-67
2022/09/18 04:27:51;;;;;;;9.68;2.85;;;14.20;99.90;;;;;;5035135;28;20497;-67
2022/09/18 04:30:16;;;;;;;8.70;2.60;;;14.20;99.90;;;;;;5034541;28;20029;-67
2022/09/18 04:32:43;;;;;;;8.52;2.40;;;14.30;99.90;;;;;;5034043;28;20031;-67
2022/09/18 04:35:09;;;;;;;10.05;2.80;;;14.30;99.90;;;;;;5032366;28;20474;-67
2022/09/18 04:37:34;;;;;;;8.48;2.83;;;14.30;99.90;;;;;;5034134;28;20036;-67
2022/09/18 04:40:00;;;;;;;10.13;2.85;;;14.30;99.90;;;;;;5034482;28;20029;-67
2022/09/18 04:42:25;;;;;;;13.07;3.00;;;14.30;99.90;;;;;;5034905;28;20033;-67
2022/09/18 04:44:51;;;;;;;15.10;3.45;;;14.30;99.90;;;;;;5033301;28;20030;-67
2022/09/18 04:47:17;;;;;;;12.77;2.92;;;14.30;99.90;;;;;;5034407;28;20129;-68
2022/09/18 04:49:42;;;;;;;13.07;3.67;;;14.30;99.90;;;;;;5032489;28;20076;-67
2022/09/18 04:52:08;;;;;;;11.93;3.70;;;14.30;99.90;;;;;;5032650;28;20063;-67
2022/09/18 04:54:33;;;;;;;10.60;3.45;;;14.30;99.90;;;;;;5033700;28;20017;-67
2022/09/18 04:56:59;;;;;;;10.52;3.45;;;14.30;99.90;;;;;;5034686;28;20470;-67
2022/09/18 04:59:25;;;;;;;11.18;3.55;;;14.20;99.90;;;;;;5032796;28;20124;-67
2022/09/18 05:01:50;;;;;;;7.70;2.88;;;14.10;99.90;;;;;;5034288;28;20030;-67
2022/09/18 05:04:16;;;;;;;8.68;2.83;;;14.00;99.90;;;;;;5033808;28;20116;-67
2022/09/18 05:06:42;;;;;;;9.77;2.80;;;14.10;99.90;;;;;;5033881;28;20061;-67
2022/09/18 05:09:07;;;;;;;8.60;2.90;;;14.10;99.90;;;;;;5033737;28;20046;-67
2022/09/18 05:11:33;;;;;;;11.50;3.15;;;14.10;99.90;;;;;;5034350;28;20021;-67
2022/09/18 05:13:59;;;;;;;10.35;3.20;;;14.20;99.90;;;;;;5033871;28;20080;-67
2022/09/18 05:16:25;;;;;;;7.20;3.00;;;14.20;99.90;;;;;;5033883;28;20474;-67
2022/09/18 05:18:51;;;;;;;12.18;3.40;;;14.20;99.90;;;;;;5032865;28;20482;-68
2022/09/18 05:21:17;;;;;;;11.20;3.40;;;14.20;99.90;;;;;;5033423;28;20029;-69
2022/09/18 05:23:44;;;;;;;9.98;3.08;;;14.20;99.90;;;;;;5033323;28;20033;-68
2022/09/18 05:26:10;;;;;;;9.90;2.88;;;14.10;99.90;;;;;;5033336;28;20033;-69
2022/09/18 05:28:36;;;;;;;8.05;3.50;;;14.10;99.90;;;;;;5033728;28;20026;-68
2022/09/18 05:31:02;;;;;;;14.20;3.40;;;14.10;99.90;;;;;;5032502;28;20057;-68
2022/09/18 05:33:29;;;;;;;14.25;3.90;;;14.10;99.90;;;;;;5033711;28;20056;-68
2022/09/18 05:35:56;;;;;;;12.80;3.90;;;14.10;99.90;;;;;;5033022;28;20025;-69
2022/09/18 05:38:23;;;;;;;10.07;3.65;;;14.10;99.90;;;;;;5032070;28;20068;-68
2022/09/18 05:40:48;;;;;;;20.33;3.60;;;14.10;99.90;;;;;;5032931;28;20068;-68
2022/09/18 05:43:15;;;;;;;13.57;3.90;;;14.10;99.90;;;;;;5032821;28;20029;-68
2022/09/18 05:45:41;;;;;;;11.60;3.83;;;14.10;99.90;;;;;;5032736;28;20429;-67
2022/09/18 05:48:07;;;;;;;9.60;3.97;;;14.10;99.90;;;;;;5022335;28;20476;-68
2022/09/18 05:50:35;;;;;;;7.40;3.50;;;14.00;99.90;;;;;;5035530;28;20251;-70
2022/09/18 05:53:06;;;;;;;12.00;3.25;;;14.00;99.90;;;;;;5031767;28;20024;-72
2022/09/18 05:55:33;;;;;;;8.38;2.90;;;14.00;99.90;;;;;;5032222;28;20025;-69
2022/09/18 05:58:00;;;;;;;4.82;2.72;;;14.10;99.90;;;;;;5032543;28;20033;-68
2022/09/18 06:00:28;;;;;;;6.38;2.67;;;14.10;99.90;;;;;;5032672;28;20025;-68
2022/09/18 06:03:02;;;;;;;8.35;2.55;;;14.10;99.90;;;;;;5033265;28;20028;-68
2022/09/18 06:05:30;;;;;;;7.20;2.30;;;14.10;99.90;;;;;;5046828;28;20649;-69
2022/09/18 06:08:00;;;;;;;11.88;2.30;;;14.00;99.90;;;;;;5051514;28;20090;-68
2022/09/18 06:10:27;;;;;;;6.68;2.58;;;14.00;99.90;;;;;;5047357;28;20128;-67
2022/09/18 06:13:03;;;;;;;6.70;2.55;;;14.10;99.90;;;;;;5031275;28;20120;-66
2022/09/18 06:15:30;;;;;;;9.48;3.08;;;14.10;99.90;;;;;;5032837;28;20452;-66
2022/09/18 06:17:55;;;;;;;4.93;2.40;;;14.10;99.90;;;;;;5032655;28;20059;-66
2022/09/18 06:20:21;;;;;;;7.43;2.65;;;14.10;99.90;;;;;;5032292;28;20025;-67
2022/09/18 06:22:46;;;;;;;6.43;2.30;;;14.10;99.90;;;;;;5032982;28;20081;-66
2022/09/18 06:25:12;;;;;;;6.65;1.70;;;14.10;99.90;;;;;;5031798;28;20028;-66
2022/09/18 06:27:38;;;;;;;8.85;2.08;;;14.10;99.90;;;;;;5044929;28;20047;-67
2022/09/18 06:30:04;;;;;;;9.40;1.98;;;14.00;99.90;;;;;;5039793;28;20022;-68
2022/09/18 06:32:30;;;;;;;5.80;2.13;;;13.90;99.90;;;;;;5031420;28;20025;-67
2022/09/18 06:34:56;;;;;;;10.18;2.67;;;14.10;99.90;;;;;;5031721;28;20152;-68
2022/09/18 06:37:21;;;;;;;8.15;1.70;;;14.20;99.90;;;;;;5031780;28;20029;-67
2022/09/18 06:39:47;;;;;;;7.97;2.05;;;14.20;99.90;;;;;;5031882;28;20044;-68
2022/09/18 06:42:12;;;;;;;9.00;1.70;;;14.20;99.90;;;;;;5031484;28;20021;-67
2022/09/18 06:44:38;;;;;;;5.72;2.05;;;14.20;99.90;;;;;;5032117;28;20469;-71
2022/09/18 06:47:04;;;;;;;6.07;2.10;;;14.30;99.90;;;;;;5031886;28;20043;-67
2022/09/18 06:49:29;;;;;;;8.00;2.60;;;14.40;99.90;;;;;;5030144;28;20021;-69
2022/09/18 06:51:55;;;;;;;4.50;1.70;;;14.40;99.90;;;;;;5044878;28;20021;-68
2022/09/18 06:54:20;;;;;;;10.52;2.55;;;14.40;99.90;;;;;;5051940;28;20032;-67
2022/09/18 06:56:46;;;;;;;9.15;2.67;;;14.50;99.90;;;;;;5037333;28;20029;-67
2022/09/18 06:59:12;;;;;;;12.63;2.75;;;14.60;99.90;;;;;;5033922;28;20381;-68
2022/09/18 07:01:38;;;;;;;9.05;2.30;;;14.50;99.90;;;;;;5033986;28;20030;-68
2022/09/18 07:04:04;;;;;;;8.23;1.83;;;14.60;99.90;;;;;;5035359;28;20128;-67
2022/09/18 07:06:30;;;;;;;8.13;2.00;;;14.50;99.90;;;;;;5033072;28;20048;-67
2022/09/18 07:08:55;;;;;;;7.70;2.20;;;14.60;99.90;;;;;;5036160;28;20116;-67
2022/09/18 07:11:21;;;;;;;6.38;2.60;;;14.60;99.90;;;;;;5035115;28;20096;-67
2022/09/18 07:13:47;;;;;;;4.93;2.00;;;14.60;99.90;;;;;;5035705;28;20033;-68
2022/09/18 07:16:13;;;;;;;6.95;1.98;;;14.60;99.90;;;;;;5035176;28;20029;-67
2022/09/18 07:18:38;;;;;;;8.98;2.33;;;14.70;99.90;;;;;;5035566;28;20037;-67
2022/09/18 07:21:04;;;;;;;6.03;2.67;;;14.70;99.90;;;;;;5036162;28;20021;-67
2022/09/18 07:23:32;;;;;;;6.75;2.38;;;14.60;99.90;;;;;;5036016;28;20029;-67
2022/09/18 07:26:02;;;;;;;8.43;2.63;;;14.60;99.90;;;;;;5032802;28;20109;-68
2022/09/18 07:28:28;;;;;;;6.05;2.30;;;14.60;99.90;;;;;;5034235;28;20030;-67
2022/09/18 07:30:54;;;;;;;4.85;2.78;;;14.60;99.90;;;;;;5044991;28;20035;-66
2022/09/18 07:33:20;;;;;;;7.45;2.20;;;14.60;99.90;;;;;;5054283;28;20040;-66
2022/09/18 07:35:46;;;;;;;7.57;2.72;;;14.60;99.90;;;;;;5042562;28;20056;-67
2022/09/18 07:38:12;;;;;;;6.82;2.35;;;14.70;99.90;;;;;;5034030;28;20017;-67
2022/09/18 07:40:40;;;;;;;5.95;2.60;;;14.70;99.90;;;;;;5035054;28;20025;-67
2022/09/18 07:43:08;;;;;;;10.77;3.20;;;14.70;99.90;;;;;;5034816;28;20030;-67
2022/09/18 07:45:35;;;;;;;10.23;2.72;;;14.80;99.90;;;;;;5035810;28;20101;-67
2022/09/18 07:48:05;;;;;;;5.88;2.30;;;14.80;99.90;;;;;;5035153;28;20025;-67
2022/09/18 07:50:32;;;;;;;4.50;2.03;;;14.80;99.90;;;;;;5035430;28;20048;-67
2022/09/18 07:53:01;;;;;;;4.70;2.33;;;14.90;99.90;;;;;;5034367;28;20037;-67
2022/09/18 07:55:27;;;;;;;5.38;2.53;;;14.80;99.90;;;;;;5046224;28;20052;-68
2022/09/18 07:57:59;;;;;;;3.47;2.10;;;14.90;99.90;;;;;;5035209;28;20055;-67
2022/09/18 08:00:26;;;;;;;6.50;2.35;;;14.80;99.90;;;;;;5034766;28;20087;-66
2022/09/18 08:03:10;;;;;;;6.07;1.95;;;14.90;99.90;;;;;;5015583;28;20026;-68
2022/09/18 08:05:37;;;;;;;3.92;2.20;;;15.00;99.90;;;;;;5015604;28;20470;-68
2022/09/18 08:08:08;;;;;;;6.78;2.42;;;15.00;99.90;;;;;;5015022;28;20093;-68
2022/09/18 08:10:35;;;;;;;6.68;2.67;;;15.10;99.90;;;;;;5029695;28;20112;-67
2022/09/18 08:13:02;;;;;;;6.00;2.45;;;15.00;99.90;;;;;;5014565;28;20034;-67
2022/09/18 08:15:29;;;;;;;5.40;2.50;;;15.10;99.90;;;;;;5014253;28;20113;-67
2022/09/18 08:17:54;;;;;;;6.78;2.78;;;15.20;99.90;;;;;;5043874;28;20420;-68
2022/09/18 08:20:22;;;;;;;8.90;2.50;;;15.20;99.90;;;;;;5037432;28;20122;-67
2022/09/18 08:22:48;;;;;;;5.65;2.60;;;15.20;99.90;;;;;;5033522;28;20028;-67
2022/09/18 08:25:13;;;;;;;8.00;2.80;;;15.10;99.90;;;;;;5033945;28;20033;-68
2022/09/18 08:27:40;;;;;;;5.18;3.25;;;15.10;99.90;;;;;;5033723;28;20030;-68
2022/09/18 08:30:08;;;;;;;6.72;3.20;;;15.20;99.90;;;;;;5033128;28;20017;-67
2022/09/18 08:32:34;;;;;;;7.10;3.30;;;15.20;99.90;;;;;;5032106;28;20029;-68
2022/09/18 08:35:01;;;;;;;6.32;3.40;;;15.30;99.90;;;;;;5034478;28;20461;-67
2022/09/18 08:37:28;;;;;;;7.82;3.25;;;15.20;99.90;;;;;;5032321;28;20037;-68
2022/09/18 08:39:54;;;;;;;10.57;3.83;;;15.20;99.90;;;;;;5033916;28;20021;-67
2022/09/18 08:42:35;;;;;;;10.57;3.92;;;15.20;99.90;;;;;;5035926;28;20030;-68
2022/09/18 08:45:40;;;;;;;3.72;3.30;;;15.30;99.90;;;;;;5032443;28;20033;-67
2022/09/18 08:48:27;;;;;;;7.60;4.30;;;15.30;99.90;;;;;;5030078;28;20069;-68
2022/09/18 08:51:05;;;;;;;5.85;3.85;;;15.20;99.90;;;;;;5033651;28;20010;-67
2022/09/18 08:53:40;;;;;;;7.32;4.03;;;15.30;99.90;;;;;;5033948;28;20131;-67
2022/09/18 08:56:14;;;;;;;6.10;3.50;;;15.30;99.90;;;;;;5033892;28;20028;-68
2022/09/18 08:58:45;;;;;;;3.92;3.40;;;15.30;99.90;;;;;;5032048;28;20087;-67
2022/09/18 09:01:16;;;;;;;5.47;4.10;;;15.30;99.90;;;;;;5033334;28;20100;-68
2022/09/18 09:04:06;;;;;;;7.82;3.58;;;15.40;99.90;;;;;;5033726;28;20430;-67
2022/09/18 09:06:57;;;;;;;10.88;3.50;;;15.30;99.90;;;;;;5032004;28;20059;-69
2022/09/18 09:10:03;;;;;;;8.75;3.20;;;15.30;99.90;;;;;;5031414;28;20063;-69
2022/09/18 09:12:41;;;;;;;5.13;3.47;;;15.30;99.90;;;;;;5015581;28;20041;-68
2022/09/18 09:15:12;;;;;;;5.63;3.42;;;15.40;99.90;;;;;;5015113;28;20037;-67
2022/09/18 09:17:53;;;;;;;8.85;3.35;;;15.40;99.90;;;;;;5034424;28;20025;-67
2022/09/18 09:20:22;;;;;;;4.78;2.85;;;15.40;99.90;;;;;;5031191;28;20033;-67
2022/09/18 09:23:04;;;;;;;8.98;2.90;;;15.40;99.90;;;;;;5032838;28;20025;-68
2022/09/18 09:25:54;;;;;;;6.43;2.83;;;15.50;99.90;;;;;;5037999;28;20033;-68
2022/09/18 09:28:34;;;;;;;6.45;2.50;;;15.40;99.90;;;;;;5041616;28;20084;-67
2022/09/18 09:31:05;;;;;;;3.97;2.30;;;15.50;99.90;;;;;;5036527;28;20370;-67
2022/09/18 09:33:55;;;;;;;2.40;1.98;;;15.50;99.90;;;;;;5038613;28;20121;-67
2022/09/18 09:36:26;;;;;;;7.32;2.22;;;15.60;99.90;;;;;;5032309;28;20045;-67
2022/09/18 09:39:17;;;;;;;5.43;2.08;;;15.60;99.90;;;;;;5040231;28;20037;-67
2022/09/18 09:41:52;;;;;;;4.78;1.90;;;15.70;99.90;;;;;;5020601;28;20025;-67
2022/09/18 09:44:34;;;;;;;5.32;1.98;;;15.70;99.90;;;;;;5040984;28;20025;-67
2022/09/18 09:47:04;;;;;;;5.90;1.90;;;15.70;99.90;;;;;;5038582;28;20076;-67
2022/09/18 09:49:55;;;;;;;5.20;1.60;;;15.90;99.90;;;;;;5047916;28;20064;-67
2022/09/18 09:52:26;;;;;;;4.55;1.88;;;15.90;99.90;;;;;;5041052;28;20028;-67
2022/09/18 09:55:13;;;;;;;4.22;1.63;;;15.80;99.90;;;;;;5038184;28;20020;-67
2022/09/18 09:57:47;;;;;;;4.18;2.25;;;16.00;99.90;;;;;;5019508;28;20123;-67
2022/09/18 10:00:14;;;;;;;4.10;2.35;;;16.00;99.90;;;;;;5042115;28;20092;-67
2022/09/18 10:03:31;;;;;;;4.15;2.40;;;16.10;99.90;;;;;;5032049;28;20048;-67
2022/09/18 10:06:21;;;;;;;6.05;2.20;;;16.10;99.90;;;;;;5027464;28;20410;-67
2022/09/18 10:09:03;;;;;;;4.15;2.45;;;16.10;99.90;;;;;;5032162;28;20026;-67
2022/09/18 10:11:31;;;;;;;9.02;2.80;;;16.00;99.90;;;;;;5034872;28;20484;-67
2022/09/18 10:14:04;;;;;;;4.35;2.40;;;15.80;99.90;;;;;;5032564;28;20553;-68
2022/09/18 10:16:29;;;;;;;5.43;2.22;;;15.80;99.90;;;;;;5032712;28;20096;-67
2022/09/18 10:18:56;;;;;;;6.20;2.90;;;15.80;99.90;;;;;;5030116;28;20120;-67
2022/09/18 10:21:27;;;;;;;5.90;3.50;;;15.80;99.90;;;;;;5033558;28;20022;-68
2022/09/18 10:23:59;;;;;;;7.97;3.55;;;15.80;99.90;;;;;;5029207;28;20013;-68
2022/09/18 10:26:35;;;;;;;;;;;15.70;99.90;;;;;;5031227;28;20033;-68
2022/09/18 10:29:00;;;;;;;7.82;3.67;;;15.70;99.90;;;;;;5030692;28;20357;-68
2022/09/18 10:31:48;;;;;;;7.75;4.28;;;15.70;99.90;;;;;;5034365;28;20029;-68
2022/09/18 10:34:33;;;;;;;5.15;3.65;;;15.60;99.90;;;;;;5040868;28;20076;-68
2022/09/18 10:36:59;;;;;;;7.15;4.60;;;15.60;99.90;;;;;;5043671;28;20060;-68
2022/09/18 10:39:37;;;;;;;8.25;5.20;;;15.50;99.90;;;;;;5035303;28;20026;-68
2022/09/18 10:42:14;;;;;;;5.63;4.43;;;15.60;99.90;;;;;;5042217;28;20099;-68
2022/09/18 10:44:42;;;;;;;6.43;4.40;;;15.60;99.90;;;;;;5040734;28;20029;-67
2022/09/18 10:47:20;;;;;;;7.13;4.63;;;15.60;99.90;;;;;;5033583;28;20092;-67
2022/09/18 10:49:48;;;;;;;5.50;4.07;;;15.70;99.90;;;;;;5019499;28;20013;-67
2022/09/18 10:52:20;;;;;;;8.77;4.40;;;15.70;99.90;;;;;;5041465;28;20030;-67
2022/09/18 10:55:01;;;;;;;5.47;3.87;;;15.80;99.90;;;;;;5043566;28;20032;-68
2022/09/18 10:57:33;;;;;;;5.85;4.38;;;15.80;99.90;;;;;;5032445;28;20026;-67
2022/09/18 10:59:59;;;;;;;6.43;4.55;;;15.80;99.90;;;;;;5036422;28;20033;-68
2022/09/18 11:02:27;;;;;;;8.50;4.63;;;15.90;99.90;;;;;;5030022;28;20029;-67
2022/09/18 11:04:54;;;;;;;10.25;4.47;;;16.00;99.90;;;;;;5029443;28;20088;-67
2022/09/18 11:07:22;;;;;;;8.75;4.47;;;16.10;99.90;;;;;;5031253;28;20049;-67
2022/09/18 11:09:48;;;;;;;6.93;4.40;;;16.10;99.90;;;;;;5028185;28;20026;-67
2022/09/18 11:12:26;;;;;;;5.30;3.95;;;16.20;99.90;;;;;;5028032;28;20032;-67
2022/09/18 11:15:01;;;;;;;5.35;3.53;;;16.20;99.90;;;;;;5036816;28;20393;-68
2022/09/18 11:17:30;;;;;;;8.77;4.18;;;16.20;99.90;;;;;;5035756;28;20474;-67
2022/09/18 11:19:58;;;;;;;9.15;4.72;;;16.30;99.90;;;;;;5030924;28;20025;-68
2022/09/18 11:22:43;;;;;;;4.53;4.00;;;16.30;99.90;;;;;;5039498;28;20466;-68
2022/09/18 11:25:22;;;;;;;5.70;4.10;;;16.40;99.90;;;;;;5033015;28;20040;-67
2022/09/18 11:27:56;;;;;;;8.30;4.25;;;16.30;99.90;;;;;;5020470;28;20028;-68
2022/09/18 11:30:28;;;;;;;7.40;4.15;;;16.30;99.90;;;;;;5038379;28;20106;-68
2022/09/18 11:33:08;;;;;;;7.93;4.03;;;16.20;99.90;;;;;;5041946;28;20036;-67
2022/09/18 11:35:35;;;;;;;5.80;4.10;;;16.20;99.90;;;;;;5033897;28;20013;-67
2022/09/18 11:38:06;;;;;;;7.30;3.78;;;16.20;99.90;;;;;;5044179;28;20163;-68
2022/09/18 11:40:47;;;;;;;8.00;3.90;;;16.20;99.90;;;;;;5040219;28;20041;-68
2022/09/18 11:43:21;;;;;;;6.40;3.22;;;16.30;99.90;;;;;;5033413;28;20377;-67
2022/09/18 11:46:03;;;;;;;3.90;2.83;;;16.40;99.90;;;;;;5048460;28;20481;-68
2022/09/18 11:48:31;;;;;;;7.50;3.03;;;16.50;99.90;;;;;;5044349;28;20470;-67
2022/09/18 11:51:02;;;;;;;7.05;2.75;;;16.60;99.90;;;;;;5053288;28;20158;-68
2022/09/18 11:53:36;;;;;;;4.32;2.50;;;16.60;99.90;;;;;;5037044;28;20028;-68
2022/09/18 11:56:14;;;;;;;7.28;3.40;;;16.70;99.90;;;;;;5046560;28;20474;-68
2022/09/18 11:58:57;;;;;;;8.43;2.97;;;16.70;99.90;;;;;;5045949;28;20086;-67
2022/09/18 12:01:44;;;;;;;8.57;3.22;;;16.70;99.90;;;;;;5035702;28;20374;-68
2022/09/18 12:04:33;;;;;;;6.05;3.10;;;16.90;99.90;;;;;;5042286;28;20113;-69
2022/09/18 12:07:08;;;;;;;7.05;3.53;;;16.90;99.90;;;;;;5031028;28;20129;-67
2022/09/18 12:09:55;;;;;;;7.25;2.67;;;16.90;99.90;;;;;;5049202;28;20013;-70
2022/09/18 12:12:23;;;;;;;4.82;2.95;;;16.80;99.90;;;;;;5036605;28;20079;-69
2022/09/18 12:15:04;;;;;;;6.15;3.60;;;16.70;99.90;;;;;;5043024;28;20056;-69
2022/09/18 12:17:43;;;;;;;4.30;2.65;;;16.50;99.90;;;;;;5040879;28;20036;-70
2022/09/18 12:20:29;;;;;;;7.80;2.75;;;16.50;99.90;;;;;;5045980;28;20029;-71
2022/09/18 12:23:00;;;;;;;4.93;3.10;;;16.40;99.90;;;;;;5046473;28;20032;-68
2022/09/18 12:25:54;;;;;;;4.63;3.00;;;16.30;99.90;;;;;;5037661;28;20036;-68
2022/09/18 12:29:00;;;;;;;7.78;3.70;;;16.30;99.90;;;;;;5042602;28;20041;-69
2022/09/18 12:31:43;;;;;;;7.55;3.55;;;16.30;99.90;;;;;;5045782;28;20037;-67
2022/09/18 12:34:42;;;;;;;6.75;3.50;;;16.20;99.90;;;;;;5029199;28;20061;-66
2022/09/18 12:37:45;;;;;;;5.25;3.25;;;16.20;99.90;;;;;;5032319;28;20061;-66
2022/09/18 12:40:30;;;;;;;6.65;3.83;;;16.00;99.90;;;;;;4984955;28;20083;-67
2022/09/18 12:43:15;;;;;;;15.07;5.05;;;16.10;99.90;;;;;;5029934;28;20118;-67
2022/09/18 12:45:40;;;;;;;12.55;3.15;;;15.60;99.90;;;;;;5025860;28;20034;-67
2022/09/18 12:48:20;;;;;;;6.38;2.30;;;15.60;99.90;;;;;;5027175;28;20055;-66
2022/09/18 12:51:03;;;;;;;2.47;1.23;;;15.50;99.90;;;;;;5027403;28;20067;-68
2022/09/18 12:53:35;;;;;;;1.75;0.95;;;15.50;99.90;;;;;;5031233;28;20025;-65
2022/09/18 12:56:39;;;;;;;1.75;0.68;;;15.40;99.90;;;;;;5024424;28;20033;-67
2022/09/18 12:59:30;;;;;;;2.17;0.95;;;15.30;99.90;;;;;;5027968;28;20087;-68
2022/09/18 13:02:24;;;;;;;0.73;0.73;;;15.40;99.90;;;;;;5029856;28;20520;-66
2022/09/18 13:05:15;;;;;;;3.95;1.20;;;15.40;99.90;;;;;;5026354;28;20029;-66
2022/09/18 13:07:48;;;;;;;2.78;1.10;;;15.40;99.90;;;;;;5032166;28;20041;-66
2022/09/18 13:10:39;;;;;;;4.00;1.40;;;15.40;99.90;;;;;;5024841;28;20017;-66